| time (UTC) | temp C | wind direction | speed KPH | gust KPH | rain 1hr cm | rain 24hr cm | rain mn cm | humidity % | barometer mb |
| 20260506051147 | 18 | 0 | 3.2 | 14.5 | 0.00 | 0.51 | 0.30 | 49 | 1014.3 |
| 20260506050647 | 18 | 0 | 3.2 | 14.5 | 0.00 | 0.51 | 0.30 | 49 | 1014.2 |
| 20260506050151 | 18 | 0 | 1.6 | 11.3 | 0.00 | 0.51 | 0.30 | 48 | 1014.1 |
| 20260506050147 | 18 | 0 | 1.6 | 14.5 | 0.00 | 0.51 | 0.30 | 48 | 1014.2 |
| 20260506044647 | 18 | 0 | 0.0 | 11.3 | 0.00 | 0.51 | 0.30 | 48 | 1014.0 |
| 20260506044148 | 18 | 0 | 1.6 | 11.3 | 0.00 | 0.51 | 0.30 | 47 | 1014.0 |
| 20260506043647 | 18 | 0 | 1.6 | 11.3 | 0.00 | 0.51 | 0.30 | 47 | 1014.0 |
| 20260506043152 | 18 | 0 | 1.6 | 11.3 | 0.00 | 0.53 | 0.30 | 46 | 1013.9 |
| 20260506043148 | 18 | 0 | 0.0 | 11.3 | 0.00 | 0.53 | 0.30 | 47 | 1013.9 |
| 20260506042145 | 18 | 0 | 1.6 | 11.3 | 0.00 | 0.53 | 0.30 | 46 | 1013.9 |
| 20260506041645 | 18 | 0 | 1.6 | 12.9 | 0.00 | 0.53 | 0.30 | 45 | 1013.8 |
| 20260506041145 | 18 | 0 | 1.6 | 12.9 | 0.00 | 0.53 | 0.30 | 45 | 1013.7 |
| 20260506040645 | 18 | 0 | 0.0 | 8.0 | 0.00 | 0.53 | 0.30 | 44 | 1013.5 |
| 20260506040145 | 18 | 0 | 0.0 | 6.4 | 0.00 | 0.53 | 0.30 | 44 | 1013.4 |
| 20260506035646 | 18 | 0 | 0.0 | 6.4 | 0.00 | 0.53 | 0.30 | 43 | 1013.2 |
| 20260506035145 | 18 | 0 | 1.6 | 11.3 | 0.00 | 0.53 | 0.30 | 42 | 1013.1 |
| 20260506034647 | 18 | 0 | 1.6 | 11.3 | 0.00 | 0.53 | 0.30 | 41 | 1013.0 |
| 20260506034642 | 19 | 0 | 1.6 | 9.7 | 0.00 | 0.53 | 0.30 | 39 | 1013.0 |
| 20260506033646 | 19 | 0 | 0.0 | 8.0 | 0.00 | 0.53 | 0.30 | 37 | 1012.9 |
| 20260506033642 | 19 | 0 | 1.6 | 9.7 | 0.00 | 0.53 | 0.30 | 38 | 1013.0 |
| 20260506032641 | 19 | 0 | 0.0 | 8.0 | 0.00 | 0.53 | 0.30 | 36 | 1012.8 |
| 20260506032141 | 19 | 0 | 0.0 | 6.4 | 0.00 | 0.53 | 0.30 | 35 | 1012.7 |
| 20260506031640 | 19 | 0 | 0.0 | 3.2 | 0.00 | 0.53 | 0.30 | 36 | 1012.6 |
| 20260506031139 | 19 | 0 | 0.0 | 6.4 | 0.00 | 0.53 | 0.30 | 35 | 1012.6 |
| 20260506030639 | 20 | 0 | 1.6 | 9.7 | 0.00 | 0.53 | 0.30 | 35 | 1012.5 |
| 20260506030139 | 20 | 0 | 1.6 | 9.7 | 0.00 | 0.53 | 0.30 | 34 | 1012.5 |
| 20260506025636 | 20 | 0 | 0.0 | 3.2 | 0.00 | 0.53 | 0.30 | 33 | 1012.4 |
| 20260506025133 | 20 | 0 | 1.6 | 11.3 | 0.00 | 0.56 | 0.30 | 33 | 1012.3 |
| 20260506024631 | 20 | 0 | 4.8 | 17.7 | 0.00 | 0.58 | 0.30 | 32 | 1012.3 |
| 20260506024132 | 20 | 0 | 3.2 | 17.7 | 0.00 | 0.58 | 0.30 | 31 | 1012.2 |
| 20260506023631 | 20 | 0 | 1.6 | 16.1 | 0.00 | 0.61 | 0.30 | 32 | 1012.1 |
| 20260506023131 | 20 | 0 | 3.2 | 11.3 | 0.00 | 0.61 | 0.30 | 32 | 1012.0 |
| 20260506022632 | 20 | 0 | 3.2 | 12.9 | 0.00 | 0.61 | 0.30 | 32 | 1012.0 |
| 20260506022131 | 20 | 0 | 3.2 | 12.9 | 0.00 | 0.64 | 0.30 | 32 | 1011.9 |
| 20260506021631 | 20 | 0 | 3.2 | 11.3 | 0.00 | 0.64 | 0.30 | 33 | 1011.7 |
| 20260506021131 | 20 | 0 | 3.2 | 11.3 | 0.00 | 0.66 | 0.30 | 33 | 1011.6 |
| 20260506020629 | 20 | 0 | 1.6 | 12.9 | 0.00 | 0.66 | 0.30 | 33 | 1011.6 |
| 20260506020129 | 21 | 0 | 1.6 | 12.9 | 0.00 | 0.66 | 0.30 | 33 | 1011.5 |
| 20260506015629 | 21 | 0 | 3.2 | 14.5 | 0.00 | 0.69 | 0.30 | 33 | 1011.4 |
| 20260506015129 | 21 | 0 | 3.2 | 16.1 | 0.00 | 0.71 | 0.30 | 33 | 1011.4 |
| 20260506014633 | 21 | 0 | 4.8 | 16.1 | 0.00 | 0.76 | 0.30 | 33 | 1011.3 |
| 20260506014629 | 21 | 0 | 3.2 | 16.1 | 0.00 | 0.74 | 0.30 | 33 | 1011.3 |
| 20260506013629 | 21 | 0 | 4.8 | 19.3 | 0.00 | 0.76 | 0.30 | 32 | 1011.3 |
| 20260506013130 | 21 | 0 | 6.4 | 19.3 | 0.00 | 0.76 | 0.30 | 33 | 1011.2 |
| 20260506012629 | 22 | 0 | 6.4 | 20.9 | 0.00 | 0.76 | 0.30 | 32 | 1011.2 |
| 20260506012128 | 22 | 0 | 6.4 | 20.9 | 0.00 | 0.76 | 0.30 | 32 | 1011.1 |
| 20260506011629 | 22 | 0 | 6.4 | 19.3 | 0.00 | 0.76 | 0.30 | 30 | 1011.0 |
| 20260506011129 | 22 | 0 | 4.8 | 19.3 | 0.00 | 0.76 | 0.30 | 30 | 1011.0 |
| 20260506010633 | 23 | 0 | 4.8 | 17.7 | 0.00 | 0.76 | 0.30 | 29 | 1010.8 |
| 20260506010629 | 23 | 0 | 4.8 | 17.7 | 0.00 | 0.76 | 0.30 | 29 | 1010.9 |
| 20260506005629 | 23 | 0 | 4.8 | 17.7 | 0.00 | 0.76 | 0.30 | 27 | 1010.8 |
| 20260506005125 | 23 | 0 | 4.8 | 17.7 | 0.00 | 0.76 | 0.30 | 26 | 1010.7 |
| 20260506004625 | 23 | 0 | 4.8 | 17.7 | 0.00 | 0.76 | 0.30 | 27 | 1010.6 |
| 20260506004123 | 23 | 0 | 4.8 | 16.1 | 0.00 | 0.76 | 0.30 | 27 | 1010.6 |
| 20260506003623 | 24 | 0 | 3.2 | 16.1 | 0.00 | 0.76 | 0.30 | 27 | 1010.6 |
| 20260506003122 | 24 | 0 | 3.2 | 16.1 | 0.00 | 0.76 | 0.30 | 27 | 1010.6 |
| 20260506002627 | 24 | 0 | 4.8 | 17.7 | 0.00 | 0.79 | 0.30 | 27 | 1010.6 |
| 20260506002623 | 24 | 0 | 4.8 | 16.1 | 0.00 | 0.79 | 0.30 | 27 | 1010.6 |
| 20260506001621 | 24 | 0 | 6.4 | 19.3 | 0.00 | 0.79 | 0.30 | 27 | 1010.6 |
| 20260506001121 | 24 | 0 | 8.0 | 24.1 | 0.00 | 0.79 | 0.30 | 26 | 1010.6 |
| 20260506000621 | 24 | 0 | 8.0 | 24.1 | 0.00 | 0.79 | 0.30 | 26 | 1010.5 |
| 20260506000121 | 25 | 0 | 6.4 | 20.9 | 0.00 | 0.79 | 0.30 | 27 | 1010.3 |
| 20260505235620 | 25 | 0 | 6.4 | 17.7 | 0.00 | 0.79 | 0.30 | 27 | 1010.5 |
| 20260505235121 | 25 | 0 | 4.8 | 17.7 | 0.00 | 0.79 | 0.30 | 27 | 1010.3 |
| 20260505234618 | 25 | 0 | 3.2 | 14.5 | 0.00 | 0.79 | 0.30 | 27 | 1010.2 |
| 20260505234119 | 25 | 0 | 4.8 | 19.3 | 0.00 | 0.79 | 0.30 | 28 | 1010.2 |
| 20260505233618 | 25 | 0 | 6.4 | 19.3 | 0.00 | 0.79 | 0.30 | 28 | 1010.2 |
| 20260505233119 | 25 | 0 | 4.8 | 19.3 | 0.00 | 0.79 | 0.30 | 28 | 1010.2 |
| 20260505232619 | 25 | 0 | 4.8 | 19.3 | 0.00 | 0.79 | 0.30 | 28 | 1010.2 |
| 20260505232118 | 25 | 0 | 4.8 | 19.3 | 0.00 | 0.79 | 0.30 | 28 | 1010.2 |
| 20260505231619 | 25 | 0 | 6.4 | 19.3 | 0.00 | 0.79 | 0.30 | 27 | 1010.3 |
| 20260505231119 | 25 | 0 | 6.4 | 17.7 | 0.00 | 0.79 | 0.30 | 27 | 1010.2 |
| 20260505230623 | 25 | 0 | 4.8 | 19.3 | 0.00 | 0.79 | 0.30 | 27 | 1010.3 |
| 20260505230619 | 25 | 0 | 4.8 | 19.3 | 0.00 | 0.79 | 0.30 | 28 | 1010.2 |
| 20260505230223 | 25 | 0 | 6.4 | 20.9 | 0.00 | 0.79 | 0.30 | 27 | 1010.3 |
| 20260505225119 | 25 | 0 | 6.4 | 20.9 | 0.00 | 0.79 | 0.30 | 27 | 1010.3 |
| 20260505224619 | 25 | 0 | 8.0 | 22.5 | 0.00 | 0.79 | 0.30 | 27 | 1010.3 |
| 20260505224118 | 25 | 0 | 8.0 | 25.7 | 0.00 | 0.79 | 0.30 | 27 | 1010.5 |
| 20260505223621 | 25 | 0 | 6.4 | 24.1 | 0.00 | 0.79 | 0.30 | 28 | 1010.6 |
| 20260505223617 | 25 | 0 | 6.4 | 25.7 | 0.00 | 0.79 | 0.30 | 27 | 1010.6 |
| 20260505222617 | 24 | 0 | 6.4 | 19.3 | 0.00 | 0.79 | 0.30 | 29 | 1010.6 |
| 20260505222114 | 24 | 0 | 9.7 | 32.2 | 0.00 | 0.79 | 0.30 | 29 | 1010.7 |
| 20260505221615 | 24 | 0 | 11.3 | 32.2 | 0.00 | 0.79 | 0.30 | 29 | 1010.7 |
| 20260505221118 | 24 | 0 | 8.0 | 22.5 | 0.00 | 0.79 | 0.30 | 29 | 1010.8 |
| 20260505221114 | 24 | 0 | 8.0 | 24.1 | 0.00 | 0.79 | 0.30 | 29 | 1010.8 |
| 20260505220114 | 24 | 0 | 8.0 | 22.5 | 0.00 | 0.79 | 0.30 | 30 | 1011.0 |
| 20260505215614 | 25 | 0 | 8.0 | 20.9 | 0.00 | 0.79 | 0.30 | 31 | 1011.0 |
| 20260505215119 | 25 | 0 | 8.0 | 19.3 | 0.00 | 0.79 | 0.30 | 31 | 1011.2 |
| 20260505215115 | 25 | 0 | 8.0 | 20.9 | 0.00 | 0.79 | 0.30 | 31 | 1011.1 |
| 20260505214115 | 25 | 0 | 8.0 | 19.3 | 0.00 | 0.79 | 0.30 | 31 | 1011.3 |
| 20260505213614 | 25 | 0 | 8.0 | 32.2 | 0.00 | 0.79 | 0.30 | 30 | 1011.2 |
| 20260505213114 | 24 | 0 | 9.7 | 32.2 | 0.00 | 0.79 | 0.30 | 29 | 1011.2 |
| 20260505212615 | 24 | 0 | 9.7 | 29.0 | 0.00 | 0.79 | 0.30 | 29 | 1011.4 |
| 20260505212114 | 24 | 0 | 9.7 | 25.7 | 0.00 | 0.79 | 0.30 | 30 | 1011.3 |
| 20260505211619 | 24 | 0 | 8.0 | 30.6 | 0.00 | 0.79 | 0.30 | 32 | 1011.3 |
| 20260505211615 | 24 | 0 | 8.0 | 22.5 | 0.00 | 0.79 | 0.30 | 31 | 1011.4 |
| 20260505210618 | 24 | 0 | 8.0 | 20.9 | 0.00 | 0.79 | 0.30 | 32 | 1011.3 |
| 20260505210614 | 24 | 0 | 8.0 | 30.6 | 0.00 | 0.79 | 0.30 | 31 | 1011.4 |
| 20260505205614 | 24 | 0 | 8.0 | 25.7 | 0.00 | 0.79 | 0.30 | 33 | 1011.4 |
| 20260505205114 | 24 | 0 | 8.0 | 25.7 | 0.00 | 0.79 | 0.30 | 34 | 1011.5 |
| 20260505204614 | 24 | 0 | 8.0 | 25.7 | 0.00 | 0.79 | 0.30 | 34 | 1011.4 |
| 20260505204114 | 24 | 0 | 6.4 | 30.6 | 0.00 | 0.79 | 0.30 | 35 | 1011.5 |
| 20260505203615 | 24 | 0 | 8.0 | 30.6 | 0.00 | 0.79 | 0.30 | 35 | 1011.4 |
| 20260505203114 | 24 | 0 | 8.0 | 22.5 | 0.00 | 0.79 | 0.30 | 35 | 1011.5 |
| 20260505202615 | 24 | 0 | 8.0 | 32.2 | 0.00 | 0.79 | 0.30 | 36 | 1011.5 |
| 20260505202114 | 24 | 0 | 6.4 | 32.2 | 0.00 | 0.79 | 0.30 | 37 | 1011.5 |
| 20260505201613 | 24 | 0 | 6.4 | 22.5 | 0.00 | 0.79 | 0.30 | 36 | 1011.6 |
| 20260505201112 | 23 | 0 | 6.4 | 24.1 | 0.00 | 0.79 | 0.30 | 37 | 1011.5 |
| 20260505200612 | 23 | 0 | 6.4 | 24.1 | 0.00 | 0.79 | 0.30 | 38 | 1011.6 |
| 20260505200113 | 23 | 0 | 4.8 | 19.3 | 0.00 | 0.79 | 0.30 | 41 | 1011.9 |
| 20260505195612 | 22 | 0 | 4.8 | 17.7 | 0.00 | 0.79 | 0.30 | 40 | 1011.7 |
| 20260505195111 | 22 | 0 | 4.8 | 17.7 | 0.00 | 0.79 | 0.30 | 41 | 1011.9 |
| 20260505194611 | 23 | 0 | 6.4 | 17.7 | 0.00 | 0.79 | 0.30 | 41 | 1011.7 |
| 20260505194110 | 23 | 0 | 3.2 | 16.1 | 0.00 | 0.79 | 0.30 | 43 | 1011.9 |
| 20260505193611 | 22 | 0 | 1.6 | 11.3 | 0.00 | 0.79 | 0.30 | 46 | 1011.9 |
| 20260505193110 | 22 | 0 | 0.0 | 1.6 | 0.00 | 0.79 | 0.30 | 47 | 1012.0 |
| 20260505192610 | 22 | 0 | 0.0 | 1.6 | 0.00 | 0.79 | 0.30 | 45 | 1012.0 |
| 20260505192114 | 22 | 0 | 1.6 | 11.3 | 0.00 | 0.79 | 0.30 | 49 | 1012.2 |
| 20260505192110 | 22 | 0 | 1.6 | 11.3 | 0.00 | 0.79 | 0.30 | 48 | 1012.1 |
| 20260505191108 | 22 | 0 | 1.6 | 8.0 | 0.00 | 0.79 | 0.30 | 48 | 1012.2 |
| 20260505190608 | 22 | 0 | 3.2 | 11.3 | 0.00 | 0.79 | 0.30 | 48 | 1012.3 |
| 20260505190107 | 21 | 0 | 1.6 | 11.3 | 0.00 | 0.79 | 0.30 | 53 | 1012.4 |
| 20260505185606 | 21 | 0 | 0.0 | 11.3 | 0.00 | 0.79 | 0.30 | 52 | 1012.4 |
| 20260505185107 | 21 | 0 | 0.0 | 0.0 | 0.00 | 0.79 | 0.30 | 52 | 1012.6 |
| 20260505184610 | 20 | 0 | 0.0 | 1.6 | 0.00 | 0.79 | 0.30 | 52 | 1012.7 |
| 20260505184606 | 20 | 0 | 0.0 | 0.0 | 0.00 | 0.79 | 0.30 | 54 | 1012.6 |
| 20260505183606 | 20 | 0 | 0.0 | 1.6 | 0.00 | 0.79 | 0.30 | 53 | 1012.9 |
| 20260505183106 | 20 | 0 | 0.0 | 0.0 | 0.00 | 0.79 | 0.30 | 54 | 1012.8 |
| 20260505182607 | 20 | 0 | 0.0 | 0.0 | 0.00 | 0.79 | 0.30 | 54 | 1012.9 |
| 20260505182108 | 20 | 0 | 0.0 | 0.0 | 0.00 | 0.79 | 0.30 | 57 | 1013.0 |
| 20260505182104 | 20 | 0 | 0.0 | 0.0 | 0.00 | 0.79 | 0.30 | 57 | 1012.9 |
| 20260505181105 | 20 | 0 | 0.0 | 0.0 | 0.00 | 0.79 | 0.30 | 57 | 1013.0 |
| 20260505180604 | 20 | 0 | 0.0 | 0.0 | 0.00 | 0.79 | 0.30 | 59 | 1013.1 |
| 20260505180104 | 20 | 0 | 0.0 | 8.0 | 0.00 | 0.79 | 0.30 | 57 | 1013.2 |
| 20260505175604 | 20 | 0 | 0.0 | 11.3 | 0.00 | 0.79 | 0.30 | 56 | 1013.2 |
| 20260505175101 | 20 | 0 | 0.0 | 11.3 | 0.00 | 0.79 | 0.30 | 57 | 1013.2 |
| 20260505174601 | 20 | 0 | 0.0 | 0.0 | 0.00 | 0.79 | 0.30 | 55 | 1013.2 |
| 20260505174100 | 20 | 0 | 0.0 | 0.0 | 0.00 | 0.79 | 0.30 | 58 | 1013.2 |
| 20260505173558 | 20 | 0 | 0.0 | 0.0 | 0.00 | 0.79 | 0.30 | 60 | 1013.4 |
| 20260505173058 | 19 | 0 | 0.0 | 0.0 | 0.00 | 0.79 | 0.30 | 61 | 1013.2 |
| 20260505172558 | 19 | 0 | 0.0 | 0.0 | 0.00 | 0.79 | 0.30 | 58 | 1013.4 |
| 20260505172059 | 19 | 0 | 0.0 | 0.0 | 0.00 | 0.79 | 0.30 | 59 | 1013.4 |
| 20260505171601 | 18 | 0 | 0.0 | 0.0 | 0.00 | 0.79 | 0.30 | 61 | 1013.4 |
| 20260505171556 | 19 | 0 | 0.0 | 0.0 | 0.00 | 0.79 | 0.30 | 61 | 1013.4 |
| 20260505171056 | 19 | 0 | 0.0 | 0.0 | 0.00 | 0.79 | 0.30 | 63 | 1013.4 |
| 20260505170701 | 18 | 0 | 0.0 | 0.0 | 0.00 | 0.79 | 0.30 | 61 | 1013.4 |
| 20260505165556 | 18 | 0 | 0.0 | 0.0 | 0.00 | 0.79 | 0.30 | 62 | 1013.2 |
| 20260505165207 | 18 | 0 | 0.0 | 0.0 | 0.00 | 0.79 | 0.30 | 68 | 1013.2 |
| 20260505165056 | 18 | 0 | 0.0 | 0.0 | 0.00 | 0.79 | 0.30 | 64 | 1013.2 |
| 20260505164602 | 18 | 0 | 0.0 | 0.0 | 0.00 | 0.79 | 0.30 | 66 | 1013.1 |
| 20260505164557 | 18 | 0 | 0.0 | 0.0 | 0.00 | 0.79 | 0.30 | 67 | 1013.2 |
| 20260505163057 | 17 | 0 | 0.0 | 0.0 | 0.00 | 0.79 | 0.30 | 70 | 1013.4 |
| 20260505162559 | 17 | 0 | 0.0 | 0.0 | 0.00 | 0.79 | 0.30 | 72 | 1013.5 |
| 20260505162554 | 17 | 0 | 0.0 | 0.0 | 0.00 | 0.79 | 0.30 | 70 | 1013.4 |
| 20260505161552 | 17 | 0 | 0.0 | 0.0 | 0.00 | 0.79 | 0.30 | 72 | 1013.5 |
| 20260505161052 | 17 | 0 | 0.0 | 0.0 | 0.00 | 0.79 | 0.30 | 71 | 1013.5 |
| 20260505160552 | 17 | 0 | 0.0 | 0.0 | 0.00 | 0.79 | 0.30 | 71 | 1013.6 |
| 20260505153048 | 16 | 0 | 0.0 | 0.0 | 0.00 | 0.79 | 0.30 | 80 | 1013.1 |
| 20260505152548 | 16 | 0 | 0.0 | 0.0 | 0.00 | 0.79 | 0.30 | 82 | 1013.2 |
| 20260505152048 | 16 | 0 | 0.0 | 0.0 | 0.00 | 0.79 | 0.30 | 82 | 1013.2 |
| 20260505151548 | 16 | 0 | 0.0 | 0.0 | 0.00 | 0.79 | 0.30 | 82 | 1013.2 |
| 20260505151048 | 15 | 0 | 0.0 | 0.0 | 0.00 | 0.79 | 0.30 | 83 | 1013.2 |
| 20260505150545 | 15 | 0 | 0.0 | 0.0 | 0.00 | 0.79 | 0.30 | 82 | 1013.2 |
| 20260505140538 | 14 | 0 | 0.0 | 0.0 | 0.00 | 0.79 | 0.30 | 89 | 1012.8 |
| 20260505124033 | 14 | 0 | 0.0 | 0.0 | 0.03 | 0.79 | 0.30 | 89 | 1012.1 |
| 20260505123533 | 14 | 0 | 0.0 | 0.0 | 0.03 | 0.79 | 0.30 | 89 | 1012.3 |
| 20260505123038 | 14 | 0 | 0.0 | 0.0 | 0.03 | 0.79 | 0.30 | 89 | 1012.1 |
| 20260505123033 | 14 | 0 | 0.0 | 0.0 | 0.03 | 0.79 | 0.30 | 89 | 1012.3 |
| 20260505122037 | 14 | 0 | 0.0 | 0.0 | 0.03 | 0.79 | 0.30 | 89 | 1012.1 |
| 20260505122033 | 14 | 0 | 0.0 | 0.0 | 0.03 | 0.79 | 0.30 | 89 | 1012.1 |
| 20260505121036 | 14 | 0 | 0.0 | 0.0 | 0.03 | 0.79 | 0.30 | 89 | 1011.6 |
| 20260505121032 | 14 | 0 | 0.0 | 0.0 | 0.03 | 0.79 | 0.30 | 89 | 1011.7 |
| 20260505120035 | 14 | 0 | 0.0 | 0.0 | 0.03 | 0.76 | 0.28 | 89 | 1011.9 |
| 20260505120030 | 13 | 0 | 0.0 | 0.0 | 0.00 | 0.76 | 0.28 | 89 | 1011.9 |
| 20260505115029 | 14 | 0 | 0.0 | 0.0 | 0.03 | 0.76 | 0.28 | 89 | 1011.9 |
| 20260505114534 | 14 | 0 | 0.0 | 0.0 | 0.03 | 0.76 | 0.28 | 89 | 1011.9 |
| 20260505114530 | 14 | 0 | 0.0 | 0.0 | 0.03 | 0.76 | 0.28 | 89 | 1011.6 |
| 20260505113530 | 14 | 0 | 0.0 | 0.0 | 0.03 | 0.76 | 0.28 | 89 | 1011.7 |
| 20260505113029 | 14 | 0 | 0.0 | 0.0 | 0.03 | 0.76 | 0.28 | 89 | 1011.9 |
| 20260505112533 | 14 | 0 | 0.0 | 0.0 | 0.03 | 0.76 | 0.28 | 89 | 1012.2 |
| 20260505112529 | 14 | 0 | 0.0 | 0.0 | 0.03 | 0.76 | 0.28 | 89 | 1012.2 |
| 20260505111533 | 14 | 0 | 0.0 | 0.0 | 0.05 | 0.76 | 0.28 | 89 | 1012.0 |
| 20260505111529 | 14 | 0 | 0.0 | 0.0 | 0.05 | 0.76 | 0.28 | 89 | 1012.1 |
| 20260505110528 | 14 | 0 | 0.0 | 0.0 | 0.05 | 0.76 | 0.28 | 89 | 1012.1 |
| 20260505102029 | 14 | 0 | 0.0 | 0.0 | 0.08 | 0.74 | 0.25 | 89 | 1012.7 |
| 20260505101522 | 14 | 0 | 0.0 | 0.0 | 0.05 | 0.71 | 0.23 | 89 | 1013.0 |
| 20260505101022 | 14 | 0 | 0.0 | 0.0 | 0.05 | 0.71 | 0.23 | 89 | 1013.0 |
| 20260505100522 | 14 | 0 | 0.0 | 0.0 | 0.08 | 0.71 | 0.23 | 89 | 1013.1 |
| 20260505100022 | 14 | 0 | 0.0 | 0.0 | 0.08 | 0.71 | 0.23 | 89 | 1013.2 |
| 20260505095526 | 14 | 0 | 0.0 | 0.0 | 0.08 | 0.71 | 0.23 | 89 | 1013.5 |
| 20260505095522 | 14 | 0 | 0.0 | 0.0 | 0.08 | 0.71 | 0.23 | 89 | 1013.4 |
| 20260505094522 | 14 | 0 | 0.0 | 0.0 | 0.08 | 0.71 | 0.23 | 89 | 1013.4 |
| 20260505094022 | 14 | 0 | 0.0 | 1.6 | 0.08 | 0.71 | 0.23 | 89 | 1013.5 |
| 20260505093522 | 14 | 0 | 0.0 | 1.6 | 0.08 | 0.71 | 0.23 | 89 | 1013.2 |
| 20260505093021 | 14 | 0 | 0.0 | 1.6 | 0.05 | 0.69 | 0.20 | 89 | 1013.1 |
| 20260505092522 | 14 | 0 | 0.0 | 1.6 | 0.05 | 0.69 | 0.20 | 89 | 1013.7 |
| 20260505092022 | 14 | 0 | 0.0 | 0.0 | 0.03 | 0.66 | 0.18 | 89 | 1013.8 |
| 20260505091522 | 14 | 0 | 0.0 | 1.6 | 0.05 | 0.66 | 0.18 | 89 | 1013.9 |
| 20260505091021 | 14 | 0 | 0.0 | 3.2 | 0.05 | 0.66 | 0.18 | 89 | 1013.7 |
| 20260505090520 | 14 | 0 | 0.0 | 3.2 | 0.03 | 0.64 | 0.15 | 88 | 1013.9 |
| 20260505090024 | 14 | 0 | 0.0 | 1.6 | 0.03 | 0.64 | 0.15 | 88 | 1014.1 |
| 20260505090021 | 14 | 0 | 0.0 | 1.6 | 0.03 | 0.64 | 0.15 | 88 | 1013.8 |
| 20260505085024 | 14 | 0 | 0.0 | 6.4 | 0.05 | 0.64 | 0.15 | 88 | 1014.2 |
| 20260505085020 | 14 | 0 | 0.0 | 6.4 | 0.05 | 0.64 | 0.15 | 88 | 1014.2 |
| 20260505084020 | 14 | 0 | 0.0 | 0.0 | 0.08 | 0.64 | 0.15 | 88 | 1014.3 |
| 20260505083519 | 15 | 0 | 0.0 | 0.0 | 0.08 | 0.64 | 0.15 | 88 | 1014.6 |
| 20260505083020 | 15 | 0 | 0.0 | 0.0 | 0.10 | 0.64 | 0.15 | 88 | 1014.9 |
| 20260505082524 | 15 | 0 | 0.0 | 0.0 | 0.10 | 0.64 | 0.15 | 88 | 1015.2 |
| 20260505082520 | 15 | 0 | 0.0 | 0.0 | 0.10 | 0.64 | 0.15 | 88 | 1015.2 |
| 20260505081520 | 15 | 0 | 0.0 | 0.0 | 0.10 | 0.61 | 0.13 | 88 | 1015.2 |
| 20260505081017 | 15 | 0 | 0.0 | 0.0 | 0.10 | 0.61 | 0.13 | 88 | 1015.2 |
| 20260505080518 | 15 | 0 | 0.0 | 0.0 | 0.13 | 0.61 | 0.13 | 88 | 1015.3 |
| 20260505080017 | 15 | 0 | 0.0 | 0.0 | 0.13 | 0.61 | 0.13 | 88 | 1015.3 |
| 20260505075518 | 15 | 0 | 0.0 | 0.0 | 0.13 | 0.61 | 0.13 | 88 | 1015.6 |
| 20260505075021 | 15 | 0 | 0.0 | 0.0 | 0.10 | 0.58 | 0.10 | 88 | 1015.8 |
| 20260505075017 | 15 | 0 | 0.0 | 0.0 | 0.10 | 0.58 | 0.10 | 88 | 1015.8 |
| 20260505074017 | 15 | 0 | 0.0 | 0.0 | 0.10 | 0.56 | 0.08 | 88 | 1015.9 |
| 20260505073516 | 15 | 0 | 0.0 | 0.0 | 0.10 | 0.56 | 0.08 | 88 | 1016.0 |
| 20260505073020 | 15 | 0 | 0.0 | 0.0 | 0.10 | 0.53 | 0.05 | 88 | 1015.8 |
| 20260505073016 | 15 | 0 | 0.0 | 0.0 | 0.08 | 0.53 | 0.05 | 88 | 1015.9 |
| 20260505072016 | 15 | 0 | 0.0 | 0.0 | 0.10 | 0.53 | 0.05 | 88 | 1015.6 |
| 20260505071515 | 15 | 0 | 0.0 | 0.0 | 0.10 | 0.51 | 0.03 | 88 | 1015.7 |
| 20260505071016 | 15 | 0 | 0.0 | 0.0 | 0.13 | 0.51 | 0.03 | 88 | 1015.6 |
| 20260505070518 | 15 | 0 | 0.0 | 0.0 | 0.15 | 0.48 | 0.00 | 87 | 1015.7 |
| 20260505070514 | 15 | 0 | 0.0 | 0.0 | 0.13 | 0.48 | 0.03 | 87 | 1015.8 |
| 20260505065514 | 15 | 0 | 0.0 | 0.0 | 0.15 | 0.48 | 0.48 | 87 | 1015.6 |
| 20260505065013 | 15 | 0 | 0.0 | 0.0 | 0.15 | 0.48 | 0.48 | 86 | 1015.4 |
| 20260505064514 | 15 | 0 | 0.0 | 0.0 | 0.18 | 0.48 | 0.48 | 86 | 1015.6 |
| 20260505064013 | 15 | 0 | 0.0 | 0.0 | 0.15 | 0.46 | 0.46 | 86 | 1015.6 |
| 20260505063514 | 15 | 0 | 0.0 | 0.0 | 0.15 | 0.46 | 0.46 | 85 | 1015.5 |
| 20260505063015 | 15 | 0 | 0.0 | 0.0 | 0.13 | 0.43 | 0.43 | 85 | 1015.5 |
| 20260505063011 | 15 | 0 | 0.0 | 0.0 | 0.15 | 0.46 | 0.46 | 86 | 1015.4 |
| 20260505062010 | 15 | 0 | 0.0 | 0.0 | 0.13 | 0.43 | 0.43 | 85 | 1015.6 |
| 20260505061507 | 15 | 0 | 0.0 | 0.0 | 0.13 | 0.41 | 0.41 | 85 | 1015.5 |
| 20260505061008 | 15 | 0 | 0.0 | 0.0 | 0.10 | 0.38 | 0.38 | 85 | 1015.6 |
| 20260505060507 | 15 | 0 | 0.0 | 0.0 | 0.08 | 0.36 | 0.36 | 85 | 1015.6 |